createdAt,value
2023-02-17T00:01:19.129Z,-2.52
2023-02-17T00:03:50.659Z,-2.53
2023-02-17T00:06:19.771Z,-2.55
2023-02-17T00:08:50.837Z,-2.55
2023-02-17T00:11:18.916Z,-2.54
2023-02-17T00:14:06.430Z,-2.55
2023-02-17T00:16:34.079Z,-2.60
2023-02-17T00:19:02.736Z,-2.64
2023-02-17T00:21:32.819Z,-2.67
2023-02-17T00:24:06.977Z,-2.64
2023-02-17T00:26:37.206Z,-2.69
2023-02-17T00:29:07.484Z,-2.67
2023-02-17T00:31:43.742Z,-2.62
2023-02-17T00:34:11.922Z,-2.74
2023-02-17T00:36:42.295Z,-2.73
2023-02-17T00:40:01.974Z,-2.71
2023-02-17T00:42:02.769Z,-2.77
2023-02-17T00:44:50.758Z,-2.76
2023-02-17T00:47:21.532Z,-2.77
2023-02-17T00:50:09.049Z,-2.76
2023-02-17T00:52:42.232Z,-2.77
2023-02-17T00:55:38.330Z,-2.82
2023-02-17T00:58:11.622Z,-2.84
2023-02-17T01:01:03.183Z,-2.85
2023-02-17T01:03:43.833Z,-2.85
2023-02-17T01:06:23.097Z,-2.86
2023-02-17T01:08:55.692Z,-2.91
2023-02-17T01:14:28.120Z,-2.91
2023-02-17T01:17:01.989Z,-2.93
2023-02-17T01:19:32.683Z,-2.88
2023-02-17T01:22:30.335Z,-2.84
2023-02-17T01:25:36.300Z,-2.83
2023-02-17T01:28:04.164Z,-2.88
2023-02-17T01:30:42.833Z,-2.93
2023-02-17T01:33:55.654Z,-3.00
2023-02-17T01:36:21.639Z,-2.94
2023-02-17T01:39:03.799Z,-2.97
2023-02-17T01:41:31.412Z,-2.95
2023-02-17T01:44:31.661Z,-2.98
2023-02-17T01:47:02.741Z,-2.98
2023-02-17T01:49:42.655Z,-3.02
2023-02-17T01:52:24.223Z,-3.02
2023-02-17T01:55:05.136Z,-3.05
2023-02-17T01:57:35.941Z,-3.04
2023-02-17T02:00:11.845Z,-3.05
2023-02-17T02:02:41.081Z,-3.11
2023-02-17T02:05:12.506Z,-3.14
2023-02-17T02:07:48.710Z,-3.14
2023-02-17T02:10:22.972Z,-3.11
2023-02-17T02:12:53.041Z,-3.07
2023-02-17T02:15:40.284Z,-3.09
2023-02-17T02:18:46.631Z,-3.11
2023-02-17T02:21:35.113Z,-3.17
2023-02-17T02:24:42.908Z,-3.16
2023-02-17T02:27:45.457Z,-3.13
2023-02-17T02:30:24.962Z,-3.13
2023-02-17T02:33:11.271Z,-3.10
2023-02-17T02:35:52.470Z,-3.11
2023-02-17T02:38:36.311Z,-3.17
2023-02-17T02:41:12.008Z,-3.17
2023-02-17T02:43:44.721Z,-3.23
2023-02-17T02:46:13.545Z,-3.24
2023-02-17T02:48:41.334Z,-3.20
2023-02-17T02:51:21.327Z,-3.20
2023-02-17T02:54:17.626Z,-3.20
2023-02-17T02:57:19.713Z,-3.21
2023-02-17T03:00:29.216Z,-3.21
2023-02-17T03:03:06.121Z,-3.19
2023-02-17T03:05:58.839Z,-3.19
2023-02-17T03:09:04.061Z,-3.21
2023-02-17T03:11:42.177Z,-3.19
2023-02-17T03:14:17.022Z,-3.19
2023-02-17T03:16:57.471Z,-3.17
2023-02-17T03:19:27.086Z,-3.17
2023-02-17T03:22:26.999Z,-3.18
2023-02-17T03:24:58.239Z,-3.20
2023-02-17T03:28:00.507Z,-3.22
2023-02-17T03:33:14.995Z,-3.24
2023-02-17T03:34:38.032Z,-3.26
2023-02-17T03:37:05.767Z,-3.27
2023-02-17T03:40:14.284Z,-3.28
2023-02-17T03:42:44.897Z,-3.32
2023-02-17T03:48:19.952Z,-3.39
2023-02-17T03:50:47.983Z,-3.38
2023-02-17T03:53:23.178Z,-3.36
2023-02-17T03:55:51.152Z,-3.41
2023-02-17T03:58:21.186Z,-3.37
2023-02-17T04:00:48.983Z,-3.43
2023-02-17T04:03:16.754Z,-3.47
2023-02-17T04:05:46.613Z,-3.53
2023-02-17T04:08:14.056Z,-3.60
2023-02-17T04:10:41.548Z,-3.60
2023-02-17T04:13:12.097Z,-3.58
2023-02-17T04:15:42.945Z,-3.59
2023-02-17T04:18:10.928Z,-3.58
2023-02-17T04:23:21.685Z,-3.59
2023-02-17T04:25:52.834Z,-3.51
2023-02-17T04:28:22.743Z,-3.54
2023-02-17T04:30:51.785Z,-3.56
2023-02-17T04:33:20.393Z,-3.53
2023-02-17T04:35:48.358Z,-3.53
2023-02-17T04:38:19.869Z,-3.50
2023-02-17T04:40:57.644Z,-3.54
2023-02-17T04:43:33.045Z,-3.56
2023-02-17T04:46:03.794Z,-3.54
2023-02-17T04:48:37.612Z,-3.50
2023-02-17T04:51:05.294Z,-3.49
2023-02-17T04:53:32.376Z,-3.52
2023-02-17T04:55:59.370Z,-3.53
2023-02-17T04:58:27.061Z,-3.49
2023-02-17T05:00:53.820Z,-3.48
2023-02-17T05:03:37.266Z,-3.47
2023-02-17T05:06:05.880Z,-3.44
2023-02-17T05:08:32.737Z,-3.40
2023-02-17T05:11:19.141Z,-3.37
2023-02-17T05:13:56.434Z,-3.32
2023-02-17T05:16:24.194Z,-3.36
2023-02-17T05:18:55.840Z,-3.37
2023-02-17T05:21:36.831Z,-3.34
2023-02-17T05:24:04.494Z,-3.35
2023-02-17T05:26:40.286Z,-3.40
2023-02-17T05:29:16.980Z,-3.36
2023-02-17T05:31:50.101Z,-3.41
2023-02-17T05:34:27.055Z,-3.39
2023-02-17T05:39:44.692Z,-3.30
2023-02-17T05:42:11.631Z,-3.25
2023-02-17T05:44:41.716Z,-3.28
2023-02-17T05:47:21.866Z,-3.26
2023-02-17T05:49:49.127Z,-3.18
2023-02-17T05:52:21.665Z,-3.17
2023-02-17T05:54:51.261Z,-3.16
2023-02-17T05:57:21.750Z,-3.14
2023-02-17T05:59:54.843Z,-3.00
2023-02-17T06:02:22.266Z,-2.96
2023-02-17T06:04:56.190Z,-2.94
2023-02-17T06:07:23.828Z,-2.95
2023-02-17T06:09:50.963Z,-2.90
2023-02-17T06:12:21.185Z,-2.88
2023-02-17T06:14:48.662Z,-2.78
2023-02-17T06:17:15.713Z,-2.73
2023-02-17T06:19:42.609Z,-2.65
2023-02-17T06:22:10.115Z,-2.53
2023-02-17T06:24:36.824Z,-2.41
2023-02-17T06:27:09.964Z,-2.32
2023-02-17T06:29:36.973Z,-2.26
2023-02-17T06:32:03.792Z,-2.15
2023-02-17T06:34:34.325Z,-2.02
2023-02-17T06:37:01.278Z,-1.88
2023-02-17T06:39:28.263Z,-1.80
2023-02-17T06:41:55.514Z,-1.80
2023-02-17T06:44:22.714Z,-1.68
2023-02-17T06:46:52.584Z,-1.51
2023-02-17T06:49:19.641Z,-1.40
2023-02-17T06:51:46.437Z,-1.27
2023-02-17T06:54:13.714Z,-1.06
2023-02-17T06:56:40.816Z,-0.91
2023-02-17T06:59:07.524Z,-0.77
2023-02-17T07:01:35.138Z,-0.51
2023-02-17T07:04:12.128Z,-0.27
2023-02-17T07:06:43.334Z,-0.07
2023-02-17T07:09:36.703Z,0.14
2023-02-17T07:12:02.781Z,0.43
2023-02-17T07:14:30.498Z,0.69
2023-02-17T07:17:06.212Z,0.86
2023-02-17T07:19:33.666Z,1.08
2023-02-17T07:22:04.198Z,1.39
2023-02-17T07:24:31.951Z,1.64
2023-02-17T07:26:59.094Z,1.91
2023-02-17T07:29:25.894Z,2.11
2023-02-17T07:31:53.294Z,2.32
2023-02-17T07:34:20.260Z,2.50
2023-02-17T07:36:46.996Z,2.68
2023-02-17T07:39:17.217Z,2.85
2023-02-17T07:41:44.338Z,2.93
2023-02-17T07:44:11.355Z,3.09
2023-02-17T07:46:40.083Z,3.23
2023-02-17T07:49:09.933Z,3.28
2023-02-17T07:51:36.833Z,3.52
2023-02-17T07:54:03.939Z,3.67
2023-02-17T07:56:30.791Z,3.92
2023-02-17T07:58:57.774Z,4.18
2023-02-17T08:01:25.940Z,4.36
2023-02-17T08:03:53.005Z,4.54
2023-02-17T08:06:22.584Z,4.82
2023-02-17T08:09:09.537Z,5.10
2023-02-17T08:11:55.889Z,5.30
2023-02-17T08:14:25.086Z,5.67
2023-02-17T08:16:52.876Z,6.08
2023-02-17T08:19:20.769Z,6.46
2023-02-17T08:21:48.745Z,6.89
2023-02-17T08:24:16.528Z,7.28
2023-02-17T08:26:43.478Z,7.61
2023-02-17T08:29:12.724Z,7.87
2023-02-17T08:31:39.613Z,8.11
2023-02-17T08:34:11.526Z,8.45
2023-02-17T08:36:41.568Z,8.53
2023-02-17T08:39:12.200Z,8.55
2023-02-17T08:41:40.887Z,8.63
2023-02-17T08:44:11.873Z,8.78
2023-02-17T08:46:39.385Z,8.88
2023-02-17T08:49:10.024Z,9.11
2023-02-17T08:51:40.240Z,9.34
2023-02-17T08:54:11.358Z,9.46
2023-02-17T08:56:39.993Z,9.59
2023-02-17T08:59:08.924Z,9.65
2023-02-17T09:01:37.669Z,9.84
2023-02-17T09:04:06.522Z,9.88
2023-02-17T09:06:37.967Z,9.94
2023-02-17T09:09:06.589Z,10.17
2023-02-17T09:11:33.594Z,10.26
2023-02-17T09:14:00.669Z,10.14
2023-02-17T09:16:40.336Z,10.32
2023-02-17T09:19:09.513Z,10.54
2023-02-17T09:21:36.405Z,10.66
2023-02-17T09:24:03.524Z,10.73
2023-02-17T09:26:30.448Z,10.73
2023-02-17T09:28:58.265Z,10.80
2023-02-17T09:31:30.227Z,10.89
2023-02-17T09:33:58.419Z,10.95
2023-02-17T09:36:31.175Z,11.15
2023-02-17T09:38:58.180Z,11.19
2023-02-17T09:41:52.097Z,11.10
2023-02-17T09:44:26.095Z,11.05
2023-02-17T09:47:05.734Z,10.93
2023-02-17T09:49:40.185Z,11.03
2023-02-17T09:52:33.888Z,11.11
2023-02-17T09:55:16.839Z,11.04
2023-02-17T09:58:02.307Z,11.24
2023-02-17T10:00:57.302Z,11.26
2023-02-17T10:03:33.271Z,11.31
2023-02-17T10:06:29.659Z,11.46
2023-02-17T10:09:15.637Z,11.38
2023-02-17T10:11:46.293Z,11.50
2023-02-17T10:14:19.443Z,11.55
2023-02-17T10:16:52.103Z,11.54
2023-02-17T10:19:44.380Z,11.42
2023-02-17T10:22:17.585Z,11.22
2023-02-17T10:24:44.742Z,11.23
2023-02-17T10:27:52.866Z,11.40
2023-02-17T10:30:22.944Z,11.52
2023-02-17T10:33:20.274Z,11.67
2023-02-17T10:35:53.548Z,11.93
2023-02-17T10:38:29.939Z,12.05
2023-02-17T10:40:57.108Z,12.21
2023-02-17T10:43:30.750Z,12.38
2023-02-17T10:46:00.236Z,12.37
2023-02-17T10:48:36.364Z,12.47
2023-02-17T10:51:05.365Z,12.33
2023-02-17T10:53:39.851Z,12.44
2023-02-17T10:56:09.834Z,12.65
2023-02-17T10:58:37.343Z,12.81
2023-02-17T11:01:06.531Z,12.88
2023-02-17T11:03:34.621Z,13.02
2023-02-17T11:06:04.835Z,13.11
2023-02-17T11:08:34.280Z,13.19
2023-02-17T11:11:07.912Z,13.20
2023-02-17T11:24:29.596Z,14.19
2023-02-17T11:27:00.201Z,14.09
2023-02-17T11:29:28.222Z,13.89
2023-02-17T11:32:08.612Z,13.95
2023-02-17T11:34:38.545Z,14.03
2023-02-17T11:37:14.526Z,14.13
2023-02-17T11:39:46.544Z,14.01
2023-02-17T11:42:17.169Z,13.91
2023-02-17T11:44:43.947Z,13.84
2023-02-17T11:47:29.174Z,13.90
2023-02-17T11:50:35.426Z,13.90
2023-02-17T11:53:37.501Z,13.64
2023-02-17T11:56:41.922Z,13.58
2023-02-17T11:59:34.175Z,13.67
2023-02-17T12:02:15.768Z,13.85
2023-02-17T12:05:03.110Z,14.00
2023-02-17T12:07:36.603Z,13.92
2023-02-17T12:10:07.170Z,13.72
2023-02-17T12:12:51.762Z,13.79
2023-02-17T12:15:33.829Z,13.83
2023-02-17T12:18:37.970Z,13.75
2023-02-17T12:21:13.799Z,13.64
2023-02-17T12:23:43.255Z,13.54
2023-02-17T12:26:18.643Z,13.45
2023-02-17T12:29:02.443Z,13.63
2023-02-17T12:31:41.351Z,13.75
2023-02-17T12:34:18.252Z,14.01
2023-02-17T12:36:45.993Z,13.86
2023-02-17T12:39:22.034Z,13.82
2023-02-17T12:41:58.976Z,13.90
2023-02-17T12:44:40.420Z,14.04
2023-02-17T12:47:15.853Z,14.11
2023-02-17T12:49:49.662Z,13.94
2023-02-17T12:52:30.969Z,14.01
2023-02-17T12:55:22.073Z,13.93
2023-02-17T12:58:11.929Z,13.81
2023-02-17T13:01:01.951Z,13.83
2023-02-17T13:03:39.235Z,13.87
2023-02-17T13:06:31.004Z,13.72
2023-02-17T13:09:25.565Z,13.59
2023-02-17T13:11:52.269Z,13.59
2023-02-17T13:14:39.183Z,13.65
2023-02-17T13:17:06.030Z,13.74
2023-02-17T13:19:35.314Z,13.79
2023-02-17T13:22:03.419Z,13.84
2023-02-17T13:24:39.137Z,13.75
2023-02-17T13:27:33.144Z,13.66
2023-02-17T13:30:04.312Z,13.68
2023-02-17T13:32:37.011Z,13.76
2023-02-17T13:35:28.376Z,13.78
2023-02-17T13:37:55.373Z,13.90
2023-02-17T13:40:22.861Z,14.09
2023-02-17T13:42:50.739Z,13.97
2023-02-17T13:45:24.366Z,13.72
2023-02-17T13:47:54.291Z,13.55
2023-02-17T13:50:33.125Z,13.55
2023-02-17T13:53:01.712Z,13.48
2023-02-17T14:12:23.759Z,13.77
2023-02-17T14:14:50.778Z,13.71
2023-02-17T14:17:32.744Z,13.52
2023-02-17T14:20:01.082Z,13.32
2023-02-17T14:22:33.024Z,13.18
2023-02-17T14:25:12.371Z,13.13
2023-02-17T14:27:44.426Z,13.13
2023-02-17T14:30:31.407Z,13.14
2023-02-17T14:33:20.103Z,12.91
2023-02-17T14:35:51.855Z,12.76
2023-02-17T14:38:40.461Z,12.63
2023-02-17T14:41:09.476Z,12.54
2023-02-17T14:43:36.725Z,12.45
2023-02-17T14:46:03.964Z,12.26
2023-02-17T14:48:30.808Z,12.23
2023-02-17T14:50:58.009Z,12.13
2023-02-17T14:53:33.945Z,12.07
2023-02-17T14:56:07.482Z,12.00
2023-02-17T14:58:34.983Z,11.93
2023-02-17T15:01:02.039Z,11.81
2023-02-17T15:03:28.884Z,11.74
2023-02-17T15:05:55.911Z,11.66
2023-02-17T15:08:30.411Z,11.66
2023-02-17T15:10:57.134Z,11.61
2023-02-17T15:13:23.904Z,11.54
2023-02-17T15:15:50.764Z,11.55
2023-02-17T15:18:19.758Z,11.44
2023-02-17T15:20:50.198Z,11.32
2023-02-17T15:23:22.468Z,11.20
2023-02-17T15:25:49.728Z,11.09
2023-02-17T15:28:19.864Z,11.02
2023-02-17T15:30:51.705Z,10.93
2023-02-17T15:33:20.461Z,10.79
2023-02-17T15:35:50.938Z,10.75
2023-02-17T15:38:20.051Z,10.68
2023-02-17T15:40:46.906Z,10.62
2023-02-17T15:43:19.506Z,10.46
2023-02-17T15:45:46.294Z,10.25
2023-02-17T15:48:27.686Z,10.00
2023-02-17T15:50:54.425Z,9.61
2023-02-17T15:53:21.314Z,9.31
2023-02-17T15:55:49.335Z,8.99
2023-02-17T15:58:17.265Z,8.80
2023-02-17T16:00:48.728Z,8.49
2023-02-17T16:03:16.034Z,8.11
2023-02-17T16:05:43.286Z,7.93
2023-02-17T16:08:10.016Z,7.71
2023-02-17T16:10:44.093Z,7.48
2023-02-17T16:13:16.394Z,7.22
2023-02-17T16:15:43.637Z,7.07
2023-02-17T16:18:31.547Z,6.77
2023-02-17T16:20:58.249Z,6.61
2023-02-17T16:23:25.143Z,6.42
2023-02-17T16:25:52.508Z,6.24
2023-02-17T16:28:22.121Z,6.12
2023-02-17T16:30:50.007Z,5.97
2023-02-17T16:33:18.212Z,5.81
2023-02-17T16:35:46.150Z,5.64
2023-02-17T16:38:17.400Z,5.55
2023-02-17T16:40:48.166Z,5.42
2023-02-17T16:43:30.631Z,5.27
2023-02-17T16:46:02.731Z,5.06
2023-02-17T16:48:33.989Z,4.94
2023-02-17T16:51:01.034Z,4.85
2023-02-17T16:53:32.646Z,4.71
2023-02-17T16:56:00.221Z,4.54
2023-02-17T16:58:28.454Z,4.40
2023-02-17T17:00:56.514Z,4.33
2023-02-17T17:03:23.541Z,4.25
2023-02-17T17:05:56.304Z,4.10
2023-02-17T17:08:23.106Z,3.97
2023-02-17T17:10:51.519Z,3.90
2023-02-17T17:13:19.614Z,3.78
2023-02-17T17:15:46.482Z,3.75
2023-02-17T17:18:27.447Z,3.60
2023-02-17T17:20:54.491Z,3.54
2023-02-17T17:23:21.546Z,3.43
2023-02-17T17:25:52.257Z,3.34
2023-02-17T17:28:20.636Z,3.30
2023-02-17T17:30:48.353Z,3.28
2023-02-17T17:33:17.804Z,3.22
2023-02-17T17:35:45.577Z,3.07
2023-02-17T17:38:16.602Z,3.04
2023-02-17T17:40:49.409Z,3.03
2023-02-17T17:43:23.679Z,2.99
2023-02-17T17:45:51.755Z,2.95
2023-02-17T17:48:18.935Z,2.91
2023-02-17T17:50:48.763Z,2.83
2023-02-17T17:53:15.726Z,2.73
2023-02-17T17:55:47.296Z,2.63
2023-02-17T17:58:16.945Z,2.54
2023-02-17T18:00:48.669Z,2.52
2023-02-17T18:03:15.847Z,2.43
2023-02-17T18:05:42.746Z,2.54
2023-02-17T18:08:09.775Z,2.47
2023-02-17T18:10:39.324Z,2.33
2023-02-17T18:13:09.330Z,2.26
2023-02-17T18:15:37.296Z,2.21
2023-02-17T18:18:04.297Z,2.18
2023-02-17T18:20:31.566Z,2.06
2023-02-17T18:22:59.456Z,2.00
2023-02-17T18:25:26.382Z,2.03
2023-02-17T18:27:54.787Z,1.90
2023-02-17T18:30:23.951Z,1.79
2023-02-17T18:32:52.049Z,1.79
2023-02-17T18:38:05.373Z,1.57
2023-02-17T18:40:41.349Z,1.55
2023-02-17T18:43:09.535Z,1.46
2023-02-17T18:45:36.770Z,1.43
2023-02-17T18:48:03.699Z,1.48
2023-02-17T18:50:33.266Z,1.47
2023-02-17T18:53:00.894Z,1.46
2023-02-17T18:55:27.846Z,1.42
2023-02-17T18:57:56.356Z,1.36
2023-02-17T19:00:24.873Z,1.31
2023-02-17T19:02:51.747Z,1.30
2023-02-17T19:05:22.324Z,1.23
2023-02-17T19:07:49.654Z,1.23
2023-02-17T19:10:16.695Z,1.19
2023-02-17T19:12:45.152Z,1.21
2023-02-17T19:15:14.178Z,1.23
2023-02-17T19:17:41.898Z,1.21
2023-02-17T19:20:09.220Z,1.09
2023-02-17T19:22:37.375Z,1.03
2023-02-17T19:25:05.304Z,0.98
2023-02-17T19:27:32.724Z,0.91
2023-02-17T19:30:00.279Z,0.79
2023-02-17T19:32:29.274Z,0.81
2023-02-17T19:34:56.844Z,0.83
2023-02-17T19:37:24.893Z,0.80
2023-02-17T19:39:53.534Z,0.80
2023-02-17T19:42:21.832Z,0.80
2023-02-17T19:44:49.771Z,0.73
2023-02-17T19:47:16.622Z,0.74
2023-02-17T19:49:45.578Z,0.71
2023-02-17T19:52:13.935Z,0.63
2023-02-17T19:54:41.473Z,0.58
2023-02-17T19:57:08.611Z,0.52
2023-02-17T19:59:36.998Z,0.48
2023-02-17T20:02:04.593Z,0.44
2023-02-17T20:04:32.643Z,0.42
2023-02-17T20:06:59.734Z,0.46
2023-02-17T20:09:27.234Z,0.42
2023-02-17T20:11:54.579Z,0.38
2023-02-17T20:14:23.558Z,0.40
2023-02-17T20:16:54.088Z,0.49
2023-02-17T20:19:22.454Z,0.41
2023-02-17T20:21:50.732Z,0.39
2023-02-17T20:24:18.536Z,0.37
2023-02-17T20:26:49.070Z,0.41
2023-02-17T20:29:20.610Z,0.38
2023-02-17T20:31:52.283Z,0.24
2023-02-17T20:34:40.049Z,0.36
2023-02-17T20:37:09.006Z,0.35
2023-02-17T20:39:37.388Z,0.34
2023-02-17T20:42:05.281Z,0.29
2023-02-17T20:44:32.923Z,0.31
2023-02-17T20:47:01.213Z,0.34
2023-02-17T20:49:29.025Z,0.31
2023-02-17T20:51:57.023Z,0.29
2023-02-17T20:54:25.844Z,0.24
2023-02-17T20:56:56.389Z,0.13
2023-02-17T20:59:24.555Z,0.14
2023-02-17T21:01:51.789Z,0.10
2023-02-17T21:04:19.292Z,0.20
2023-02-17T21:06:54.278Z,0.13
2023-02-17T21:09:24.339Z,0.04
2023-02-17T21:11:53.992Z,-0.01
2023-02-17T21:14:21.883Z,0.00
2023-02-17T21:16:49.855Z,-0.01
2023-02-17T21:19:19.694Z,-0.11
2023-02-17T21:21:47.079Z,-0.12
2023-02-17T21:24:14.678Z,-0.15
2023-02-17T21:26:41.732Z,-0.09
2023-02-17T21:29:10.323Z,-0.17
2023-02-17T21:31:37.799Z,-0.18
2023-02-17T21:34:05.628Z,-0.20
2023-02-17T21:36:32.915Z,-0.19
2023-02-17T21:39:01.180Z,-0.28
2023-02-17T21:41:30.560Z,-0.21
2023-02-17T21:44:17.134Z,-0.22
2023-02-17T21:46:45.844Z,-0.24
2023-02-17T21:49:14.580Z,-0.26
2023-02-17T21:51:43.402Z,-0.23
2023-02-17T21:54:11.461Z,-0.21
2023-02-17T21:56:39.936Z,-0.15
2023-02-17T21:59:08.470Z,-0.30
2023-02-17T22:01:36.456Z,-0.33
2023-02-17T22:04:04.214Z,-0.34
2023-02-17T22:06:36.568Z,-0.38
2023-02-17T22:09:18.744Z,-0.36
2023-02-17T22:11:50.826Z,-0.41
2023-02-17T22:14:22.036Z,-0.47
2023-02-17T22:16:56.152Z,-0.42
2023-02-17T22:19:25.441Z,-0.39
2023-02-17T22:21:54.046Z,-0.45
2023-02-17T22:24:22.744Z,-0.45
2023-02-17T22:26:51.060Z,-0.49
2023-02-17T22:29:19.437Z,-0.51
2023-02-17T22:31:48.293Z,-0.55
2023-02-17T22:34:16.286Z,-0.57
2023-02-17T22:36:44.438Z,-0.59
2023-02-17T22:39:12.845Z,-0.62
2023-02-17T22:41:45.126Z,-0.61
2023-02-17T22:44:12.779Z,-0.63
2023-02-17T22:46:41.439Z,-0.64
2023-02-17T22:49:09.826Z,-0.61
2023-02-17T22:51:40.053Z,-0.60
2023-02-17T22:54:09.022Z,-0.57
2023-02-17T22:56:37.558Z,-0.63
2023-02-17T22:59:15.332Z,-0.57
2023-02-17T23:01:43.233Z,-0.62
2023-02-17T23:04:16.770Z,-0.65
2023-02-17T23:06:45.205Z,-0.68
2023-02-17T23:09:25.648Z,-0.78
2023-02-17T23:12:00.017Z,-0.70
2023-02-17T23:14:41.984Z,-0.69
2023-02-17T23:17:14.114Z,-0.75
2023-02-17T23:19:42.800Z,-0.75
2023-02-17T23:22:16.579Z,-0.77
2023-02-17T23:24:45.619Z,-0.74
2023-02-17T23:27:13.556Z,-0.79
2023-02-17T23:29:41.874Z,-0.83
2023-02-17T23:32:10.249Z,-0.89
2023-02-17T23:34:47.063Z,-0.93
2023-02-17T23:37:15.421Z,-0.97
2023-02-17T23:39:43.045Z,-1.04
2023-02-17T23:42:13.810Z,-0.97
2023-02-17T23:44:41.359Z,-0.92
2023-02-17T23:47:09.299Z,-0.95
2023-02-17T23:49:44.219Z,-0.95
2023-02-17T23:52:17.801Z,-0.95
2023-02-17T23:54:46.877Z,-0.99
2023-02-17T23:57:14.012Z,-0.98
2023-02-17T23:59:42.376Z,-0.90
